sensor_id;sensor_type;location;lat;lon;timestamp;pressure;altitude;pressure_sealevel;temperature;humidity
19128;BME280;9696;53.686;10.094;2022-11-15T00:00:24;100963.75;;;4.82;100.00
19128;BME280;9696;53.686;10.094;2022-11-15T00:03:14;100969.06;;;4.81;100.00
19128;BME280;9696;53.686;10.094;2022-11-15T00:06:03;100961.06;;;4.69;100.00
19128;BME280;9696;53.686;10.094;2022-11-15T00:08:50;100959.13;;;4.73;100.00
19128;BME280;9696;53.686;10.094;2022-11-15T00:11:38;100961.53;;;4.76;100.00
19128;BME280;9696;53.686;10.094;2022-11-15T00:14:27;100958.34;;;4.71;100.00
19128;BME280;9696;53.686;10.094;2022-11-15T00:17:15;100959.84;;;4.61;100.00
19128;BME280;9696;53.686;10.094;2022-11-15T00:20:03;100962.81;;;4.69;100.00
19128;BME280;9696;53.686;10.094;2022-11-15T00:22:50;100964.53;;;4.54;100.00
19128;BME280;9696;53.686;10.094;2022-11-15T00:25:38;100960.47;;;4.50;100.00
19128;BME280;9696;53.686;10.094;2022-11-15T00:28:25;100955.94;;;4.68;100.00
19128;BME280;9696;53.686;10.094;2022-11-15T00:31:14;100948.88;;;4.56;100.00
19128;BME280;9696;53.686;10.094;2022-11-15T00:34:02;100956.31;;;4.62;100.00
19128;BME280;9696;53.686;10.094;2022-11-15T00:36:50;100954.50;;;4.48;100.00
19128;BME280;9696;53.686;10.094;2022-11-15T00:39:37;100961.28;;;4.51;100.00
19128;BME280;9696;53.686;10.094;2022-11-15T00:42:25;100964.06;;;4.48;100.00
19128;BME280;9696;53.686;10.094;2022-11-15T00:45:13;100965.53;;;4.52;100.00
19128;BME280;9696;53.686;10.094;2022-11-15T00:48:02;100958.34;;;4.57;100.00
19128;BME280;9696;53.686;10.094;2022-11-15T00:50:50;100958.19;;;4.74;100.00
19128;BME280;9696;53.686;10.094;2022-11-15T00:53:37;100956.97;;;4.65;100.00
19128;BME280;9696;53.686;10.094;2022-11-15T00:56:25;100954.13;;;4.54;100.00
19128;BME280;9696;53.686;10.094;2022-11-15T00:59:12;100958.03;;;4.47;100.00
19128;BME280;9696;53.686;10.094;2022-11-15T01:02:00;100951.38;;;4.57;100.00
19128;BME280;9696;53.686;10.094;2022-11-15T01:04:57;100950.94;;;4.65;100.00
19128;BME280;9696;53.686;10.094;2022-11-15T01:07:44;100957.22;;;4.61;100.00
19128;BME280;9696;53.686;10.094;2022-11-15T01:10:32;100945.53;;;4.54;100.00
19128;BME280;9696;53.686;10.094;2022-11-15T01:13:20;100946.84;;;4.61;100.00
19128;BME280;9696;53.686;10.094;2022-11-15T01:16:10;100948.66;;;4.45;100.00
19128;BME280;9696;53.686;10.094;2022-11-15T01:18:57;100939.22;;;4.58;100.00
19128;BME280;9696;53.686;10.094;2022-11-15T01:21:49;100935.88;;;4.56;100.00
19128;BME280;9696;53.686;10.094;2022-11-15T01:24:37;100943.47;;;4.59;100.00
19128;BME280;9696;53.686;10.094;2022-11-15T01:27:25;100932.25;;;4.58;100.00
19128;BME280;9696;53.686;10.094;2022-11-15T01:30:13;100933.19;;;4.57;100.00
19128;BME280;9696;53.686;10.094;2022-11-15T01:33:00;100930.16;;;4.65;100.00
19128;BME280;9696;53.686;10.094;2022-11-15T01:35:48;100927.44;;;4.66;100.00
19128;BME280;9696;53.686;10.094;2022-11-15T01:38:37;100923.47;;;4.61;100.00
19128;BME280;9696;53.686;10.094;2022-11-15T01:41:27;100923.34;;;4.62;100.00
19128;BME280;9696;53.686;10.094;2022-11-15T01:44:38;100923.28;;;4.64;100.00
19128;BME280;9696;53.686;10.094;2022-11-15T01:47:27;100916.84;;;4.55;100.00
19128;BME280;9696;53.686;10.094;2022-11-15T01:50:19;100918.53;;;4.56;100.00
19128;BME280;9696;53.686;10.094;2022-11-15T01:53:09;100918.72;;;4.53;100.00
19128;BME280;9696;53.686;10.094;2022-11-15T01:55:59;100911.78;;;4.54;100.00
19128;BME280;9696;53.686;10.094;2022-11-15T01:58:50;100914.25;;;4.41;100.00
19128;BME280;9696;53.686;10.094;2022-11-15T02:01:39;100926.56;;;4.38;100.00
19128;BME280;9696;53.686;10.094;2022-11-15T02:04:29;100924.13;;;4.35;100.00
19128;BME280;9696;53.686;10.094;2022-11-15T02:07:20;100911.13;;;4.35;100.00
19128;BME280;9696;53.686;10.094;2022-11-15T02:10:11;100902.81;;;4.30;100.00
19128;BME280;9696;53.686;10.094;2022-11-15T02:13:01;100891.25;;;4.19;100.00
19128;BME280;9696;53.686;10.094;2022-11-15T02:16:02;100889.59;;;4.18;100.00
19128;BME280;9696;53.686;10.094;2022-11-15T02:19:00;100890.00;;;4.26;100.00
19128;BME280;9696;53.686;10.094;2022-11-15T02:21:58;100887.47;;;4.25;100.00
19128;BME280;9696;53.686;10.094;2022-11-15T02:25:15;100883.22;;;4.24;100.00
19128;BME280;9696;53.686;10.094;2022-11-15T02:28:35;100891.25;;;4.19;100.00
19128;BME280;9696;53.686;10.094;2022-11-15T02:31:32;100894.94;;;4.15;100.00
19128;BME280;9696;53.686;10.094;2022-11-15T02:34:31;100895.50;;;4.06;100.00
19128;BME280;9696;53.686;10.094;2022-11-15T02:37:31;100891.00;;;4.24;100.00
19128;BME280;9696;53.686;10.094;2022-11-15T02:40:30;100891.31;;;4.04;100.00
19128;BME280;9696;53.686;10.094;2022-11-15T02:43:25;100892.50;;;3.98;100.00
19128;BME280;9696;53.686;10.094;2022-11-15T02:46:39;100879.19;;;3.89;100.00
19128;BME280;9696;53.686;10.094;2022-11-15T02:49:48;100884.38;;;3.89;100.00
19128;BME280;9696;53.686;10.094;2022-11-15T02:52:37;100884.34;;;3.74;100.00
19128;BME280;9696;53.686;10.094;2022-11-15T02:55:30;100882.00;;;3.70;100.00
19128;BME280;9696;53.686;10.094;2022-11-15T02:58:33;100886.00;;;3.60;100.00
19128;BME280;9696;53.686;10.094;2022-11-15T03:01:34;100869.88;;;3.70;100.00
19128;BME280;9696;53.686;10.094;2022-11-15T03:04:32;100872.59;;;3.67;100.00
19128;BME280;9696;53.686;10.094;2022-11-15T03:07:27;100882.84;;;3.55;100.00
19128;BME280;9696;53.686;10.094;2022-11-15T03:10:20;100875.31;;;3.50;100.00
19128;BME280;9696;53.686;10.094;2022-11-15T03:13:16;100872.53;;;3.53;100.00
19128;BME280;9696;53.686;10.094;2022-11-15T03:16:09;100880.00;;;3.75;100.00
19128;BME280;9696;53.686;10.094;2022-11-15T03:19:04;100873.84;;;3.76;100.00
19128;BME280;9696;53.686;10.094;2022-11-15T03:21:55;100871.03;;;3.65;100.00
19128;BME280;9696;53.686;10.094;2022-11-15T03:24:47;100884.09;;;3.63;100.00
19128;BME280;9696;53.686;10.094;2022-11-15T03:27:39;100877.06;;;3.50;100.00
19128;BME280;9696;53.686;10.094;2022-11-15T03:30:31;100883.09;;;3.35;100.00
19128;BME280;9696;53.686;10.094;2022-11-15T03:33:21;100874.91;;;3.26;100.00
19128;BME280;9696;53.686;10.094;2022-11-15T03:36:11;100874.06;;;3.26;100.00
19128;BME280;9696;53.686;10.094;2022-11-15T03:39:04;100877.25;;;3.31;100.00
19128;BME280;9696;53.686;10.094;2022-11-15T03:42:06;100878.47;;;3.24;100.00
19128;BME280;9696;53.686;10.094;2022-11-15T03:44:58;100872.19;;;3.28;100.00
19128;BME280;9696;53.686;10.094;2022-11-15T03:47:53;100872.06;;;3.15;100.00
19128;BME280;9696;53.686;10.094;2022-11-15T03:50:42;100873.69;;;3.16;100.00
19128;BME280;9696;53.686;10.094;2022-11-15T03:53:32;100867.09;;;3.11;100.00
19128;BME280;9696;53.686;10.094;2022-11-15T03:56:20;100866.44;;;3.07;100.00
19128;BME280;9696;53.686;10.094;2022-11-15T03:59:07;100867.00;;;3.12;100.00
19128;BME280;9696;53.686;10.094;2022-11-15T04:01:55;100868.69;;;3.13;100.00
19128;BME280;9696;53.686;10.094;2022-11-15T04:04:43;100861.34;;;3.21;100.00
19128;BME280;9696;53.686;10.094;2022-11-15T04:07:30;100869.94;;;3.06;100.00
19128;BME280;9696;53.686;10.094;2022-11-15T04:10:20;100875.47;;;3.16;100.00
19128;BME280;9696;53.686;10.094;2022-11-15T04:13:07;100869.59;;;3.12;100.00
19128;BME280;9696;53.686;10.094;2022-11-15T04:15:55;100869.28;;;3.18;100.00
19128;BME280;9696;53.686;10.094;2022-11-15T04:18:43;100868.44;;;3.18;100.00
19128;BME280;9696;53.686;10.094;2022-11-15T04:21:30;100869.78;;;3.09;100.00
19128;BME280;9696;53.686;10.094;2022-11-15T04:24:35;100863.75;;;3.09;100.00
19128;BME280;9696;53.686;10.094;2022-11-15T04:27:24;100865.25;;;3.28;100.00
19128;BME280;9696;53.686;10.094;2022-11-15T04:30:12;100861.25;;;3.07;100.00
19128;BME280;9696;53.686;10.094;2022-11-15T04:33:00;100860.78;;;2.83;100.00
19128;BME280;9696;53.686;10.094;2022-11-15T04:35:48;100867.28;;;2.75;100.00
19128;BME280;9696;53.686;10.094;2022-11-15T04:38:49;100868.63;;;2.82;100.00
19128;BME280;9696;53.686;10.094;2022-11-15T04:41:37;100861.13;;;2.93;100.00
19128;BME280;9696;53.686;10.094;2022-11-15T04:44:26;100866.72;;;2.85;100.00
19128;BME280;9696;53.686;10.094;2022-11-15T04:47:14;100871.50;;;2.93;100.00
19128;BME280;9696;53.686;10.094;2022-11-15T04:50:01;100882.06;;;3.06;100.00
19128;BME280;9696;53.686;10.094;2022-11-15T04:52:51;100874.72;;;3.14;100.00
19128;BME280;9696;53.686;10.094;2022-11-15T04:55:40;100874.41;;;3.20;100.00
19128;BME280;9696;53.686;10.094;2022-11-15T04:58:31;100874.22;;;3.07;100.00
19128;BME280;9696;53.686;10.094;2022-11-15T05:01:20;100874.47;;;3.18;100.00
19128;BME280;9696;53.686;10.094;2022-11-15T05:04:08;100868.94;;;3.09;100.00
19128;BME280;9696;53.686;10.094;2022-11-15T05:07:06;100878.38;;;3.10;100.00
19128;BME280;9696;53.686;10.094;2022-11-15T05:09:54;100875.84;;;3.08;100.00
19128;BME280;9696;53.686;10.094;2022-11-15T05:12:42;100868.69;;;3.13;100.00
19128;BME280;9696;53.686;10.094;2022-11-15T05:15:29;100868.44;;;3.33;100.00
19128;BME280;9696;53.686;10.094;2022-11-15T05:18:18;100867.44;;;3.36;100.00
19128;BME280;9696;53.686;10.094;2022-11-15T05:21:11;100866.09;;;3.29;100.00
19128;BME280;9696;53.686;10.094;2022-11-15T05:23:59;100861.75;;;3.29;100.00
19128;BME280;9696;53.686;10.094;2022-11-15T05:26:47;100854.41;;;3.38;100.00
19128;BME280;9696;53.686;10.094;2022-11-15T05:29:34;100867.13;;;3.42;100.00
19128;BME280;9696;53.686;10.094;2022-11-15T05:32:22;100863.50;;;3.45;100.00
19128;BME280;9696;53.686;10.094;2022-11-15T05:35:17;100859.66;;;3.52;100.00
19128;BME280;9696;53.686;10.094;2022-11-15T05:38:06;100849.53;;;3.63;100.00
19128;BME280;9696;53.686;10.094;2022-11-15T05:40:53;100852.22;;;3.61;100.00
19128;BME280;9696;53.686;10.094;2022-11-15T05:43:41;100854.16;;;3.58;100.00
19128;BME280;9696;53.686;10.094;2022-11-15T05:46:30;100859.75;;;3.66;100.00
19128;BME280;9696;53.686;10.094;2022-11-15T05:49:21;100858.53;;;3.71;100.00
19128;BME280;9696;53.686;10.094;2022-11-15T05:52:14;100852.84;;;3.80;100.00
19128;BME280;9696;53.686;10.094;2022-11-15T05:55:05;100856.59;;;3.91;100.00
19128;BME280;9696;53.686;10.094;2022-11-15T05:57:54;100854.50;;;3.97;100.00
19128;BME280;9696;53.686;10.094;2022-11-15T06:00:42;100846.44;;;4.02;100.00
19128;BME280;9696;53.686;10.094;2022-11-15T06:03:30;100856.81;;;4.02;100.00
19128;BME280;9696;53.686;10.094;2022-11-15T06:06:18;100857.47;;;4.05;100.00
19128;BME280;9696;53.686;10.094;2022-11-15T06:09:07;100856.28;;;4.11;100.00
19128;BME280;9696;53.686;10.094;2022-11-15T06:11:55;100856.66;;;4.19;100.00
19128;BME280;9696;53.686;10.094;2022-11-15T06:14:42;100857.91;;;4.27;100.00
19128;BME280;9696;53.686;10.094;2022-11-15T06:17:30;100858.00;;;4.26;100.00
19128;BME280;9696;53.686;10.094;2022-11-15T06:20:18;100863.13;;;4.42;100.00
19128;BME280;9696;53.686;10.094;2022-11-15T06:23:06;100872.50;;;4.44;100.00
19128;BME280;9696;53.686;10.094;2022-11-15T06:25:58;100868.97;;;4.45;100.00
19128;BME280;9696;53.686;10.094;2022-11-15T06:28:46;100877.50;;;4.47;100.00
19128;BME280;9696;53.686;10.094;2022-11-15T06:31:34;100875.03;;;4.60;100.00
19128;BME280;9696;53.686;10.094;2022-11-15T06:34:21;100879.50;;;4.72;100.00
19128;BME280;9696;53.686;10.094;2022-11-15T06:37:09;100873.47;;;4.71;100.00
19128;BME280;9696;53.686;10.094;2022-11-15T06:39:57;100873.19;;;4.76;100.00
19128;BME280;9696;53.686;10.094;2022-11-15T06:42:45;100877.91;;;4.84;100.00
19128;BME280;9696;53.686;10.094;2022-11-15T06:45:33;100876.44;;;4.80;100.00
19128;BME280;9696;53.686;10.094;2022-11-15T06:48:21;100876.63;;;4.91;100.00
19128;BME280;9696;53.686;10.094;2022-11-15T06:51:08;100886.66;;;4.97;100.00
19128;BME280;9696;53.686;10.094;2022-11-15T06:53:56;100887.31;;;5.00;100.00
19128;BME280;9696;53.686;10.094;2022-11-15T06:56:43;100882.66;;;5.05;100.00
19128;BME280;9696;53.686;10.094;2022-11-15T06:59:32;100882.06;;;5.14;100.00
19128;BME280;9696;53.686;10.094;2022-11-15T07:02:26;100885.16;;;5.21;100.00
19128;BME280;9696;53.686;10.094;2022-11-15T07:05:14;100889.88;;;5.29;100.00
19128;BME280;9696;53.686;10.094;2022-11-15T07:08:03;100891.44;;;5.31;100.00
19128;BME280;9696;53.686;10.094;2022-11-15T07:10:50;100894.81;;;5.33;100.00
19128;BME280;9696;53.686;10.094;2022-11-15T07:13:38;100894.97;;;5.44;100.00
19128;BME280;9696;53.686;10.094;2022-11-15T07:16:27;100892.88;;;5.49;100.00
19128;BME280;9696;53.686;10.094;2022-11-15T07:19:16;100888.44;;;5.51;100.00
19128;BME280;9696;53.686;10.094;2022-11-15T07:22:04;100897.63;;;5.57;100.00
19128;BME280;9696;53.686;10.094;2022-11-15T07:24:51;100906.16;;;5.59;100.00
19128;BME280;9696;53.686;10.094;2022-11-15T07:27:39;100899.84;;;5.63;100.00
19128;BME280;9696;53.686;10.094;2022-11-15T07:30:27;100904.47;;;5.72;100.00
19128;BME280;9696;53.686;10.094;2022-11-15T07:33:17;100898.00;;;5.78;100.00
19128;BME280;9696;53.686;10.094;2022-11-15T07:36:06;100898.97;;;5.77;100.00
19128;BME280;9696;53.686;10.094;2022-11-15T07:38:54;100903.97;;;5.80;100.00
19128;BME280;9696;53.686;10.094;2022-11-15T07:41:41;100902.59;;;5.88;100.00
19128;BME280;9696;53.686;10.094;2022-11-15T07:44:29;100904.16;;;5.91;100.00
19128;BME280;9696;53.686;10.094;2022-11-15T07:47:17;100911.88;;;5.92;100.00
19128;BME280;9696;53.686;10.094;2022-11-15T07:50:07;100907.53;;;6.05;100.00
19128;BME280;9696;53.686;10.094;2022-11-15T07:52:55;100915.53;;;6.02;100.00
19128;BME280;9696;53.686;10.094;2022-11-15T07:55:43;100910.75;;;6.09;100.00
19128;BME280;9696;53.686;10.094;2022-11-15T07:58:31;100913.06;;;6.13;100.00
19128;BME280;9696;53.686;10.094;2022-11-15T08:01:19;100907.44;;;6.07;100.00
19128;BME280;9696;53.686;10.094;2022-11-15T08:04:07;100900.47;;;6.07;100.00
19128;BME280;9696;53.686;10.094;2022-11-15T08:06:56;100899.66;;;6.20;100.00
19128;BME280;9696;53.686;10.094;2022-11-15T08:09:44;100901.22;;;6.22;100.00
19128;BME280;9696;53.686;10.094;2022-11-15T08:12:31;100904.88;;;6.20;100.00
19128;BME280;9696;53.686;10.094;2022-11-15T08:15:19;100899.38;;;6.24;100.00
19128;BME280;9696;53.686;10.094;2022-11-15T08:18:10;100893.75;;;6.30;100.00
19128;BME280;9696;53.686;10.094;2022-11-15T08:21:00;100897.47;;;6.26;100.00
19128;BME280;9696;53.686;10.094;2022-11-15T08:23:49;100901.34;;;6.33;100.00
19128;BME280;9696;53.686;10.094;2022-11-15T08:26:37;100899.25;;;6.26;100.00
19128;BME280;9696;53.686;10.094;2022-11-15T08:29:25;100890.28;;;6.30;100.00
19128;BME280;9696;53.686;10.094;2022-11-15T08:32:13;100884.88;;;6.33;100.00
19128;BME280;9696;53.686;10.094;2022-11-15T08:35:01;100891.13;;;6.30;100.00
19128;BME280;9696;53.686;10.094;2022-11-15T08:37:49;100888.03;;;6.38;100.00
19128;BME280;9696;53.686;10.094;2022-11-15T08:40:38;100894.16;;;6.37;100.00
19128;BME280;9696;53.686;10.094;2022-11-15T08:43:26;100895.31;;;6.45;100.00
19128;BME280;9696;53.686;10.094;2022-11-15T08:46:14;100892.84;;;6.44;100.00
19128;BME280;9696;53.686;10.094;2022-11-15T08:49:02;100897.53;;;6.51;100.00
19128;BME280;9696;53.686;10.094;2022-11-15T08:51:49;100890.13;;;6.58;100.00
19128;BME280;9696;53.686;10.094;2022-11-15T08:54:37;100898.16;;;6.55;100.00
19128;BME280;9696;53.686;10.094;2022-11-15T08:57:28;100893.25;;;6.76;100.00
19128;BME280;9696;53.686;10.094;2022-11-15T09:00:17;100896.06;;;6.73;100.00
19128;BME280;9696;53.686;10.094;2022-11-15T09:03:06;100889.94;;;6.74;100.00
19128;BME280;9696;53.686;10.094;2022-11-15T09:05:56;100897.13;;;6.83;100.00
19128;BME280;9696;53.686;10.094;2022-11-15T09:08:44;100909.94;;;6.73;100.00
19128;BME280;9696;53.686;10.094;2022-11-15T09:11:34;100903.50;;;6.79;100.00
19128;BME280;9696;53.686;10.094;2022-11-15T09:14:23;100910.56;;;6.77;100.00
19128;BME280;9696;53.686;10.094;2022-11-15T09:17:10;100903.19;;;6.83;100.00
19128;BME280;9696;53.686;10.094;2022-11-15T09:19:58;100896.81;;;6.87;100.00
19128;BME280;9696;53.686;10.094;2022-11-15T09:22:45;100891.88;;;6.95;100.00
19128;BME280;9696;53.686;10.094;2022-11-15T09:25:33;100899.91;;;7.05;100.00
19128;BME280;9696;53.686;10.094;2022-11-15T09:28:20;100895.22;;;6.97;100.00
19128;BME280;9696;53.686;10.094;2022-11-15T09:31:10;100895.94;;;6.99;100.00
19128;BME280;9696;53.686;10.094;2022-11-15T09:33:58;100885.09;;;7.18;100.00
19128;BME280;9696;53.686;10.094;2022-11-15T09:36:45;100894.06;;;7.14;100.00
19128;BME280;9696;53.686;10.094;2022-11-15T09:39:33;100896.56;;;7.16;100.00
19128;BME280;9696;53.686;10.094;2022-11-15T09:42:39;100899.38;;;7.25;100.00
19128;BME280;9696;53.686;10.094;2022-11-15T09:45:39;100895.06;;;7.37;100.00
19128;BME280;9696;53.686;10.094;2022-11-15T09:48:49;100896.63;;;7.39;100.00
19128;BME280;9696;53.686;10.094;2022-11-15T09:51:43;100891.72;;;7.35;100.00
19128;BME280;9696;53.686;10.094;2022-11-15T09:54:25;100889.69;;;7.51;100.00
19128;BME280;9696;53.686;10.094;2022-11-15T09:57:17;100893.66;;;7.56;100.00
19128;BME280;9696;53.686;10.094;2022-11-15T09:59:58;100889.56;;;7.65;100.00
19128;BME280;9696;53.686;10.094;2022-11-15T10:03:10;100895.28;;;7.70;100.00
19128;BME280;9696;53.686;10.094;2022-11-15T10:05:42;100897.25;;;7.67;99.26
19128;BME280;9696;53.686;10.094;2022-11-15T10:08:24;100893.38;;;7.72;99.54
19128;BME280;9696;53.686;10.094;2022-11-15T10:10:57;100885.94;;;7.79;99.70
19128;BME280;9696;53.686;10.094;2022-11-15T10:13:48;100891.75;;;7.82;99.26
19128;BME280;9696;53.686;10.094;2022-11-15T10:19:21;100890.44;;;8.00;97.88
19128;BME280;9696;53.686;10.094;2022-11-15T10:22:05;100891.75;;;8.06;97.73
19128;BME280;9696;53.686;10.094;2022-11-15T10:24:41;100887.16;;;8.10;97.34
19128;BME280;9696;53.686;10.094;2022-11-15T10:27:12;100886.22;;;8.22;97.76
19128;BME280;9696;53.686;10.094;2022-11-15T10:29:45;100879.66;;;8.29;95.96
19128;BME280;9696;53.686;10.094;2022-11-15T10:32:17;100889.41;;;8.38;97.60
19128;BME280;9696;53.686;10.094;2022-11-15T10:34:47;100886.78;;;8.38;96.15
19128;BME280;9696;53.686;10.094;2022-11-15T10:37:28;100880.28;;;8.43;96.50
19128;BME280;9696;53.686;10.094;2022-11-15T10:40:05;100872.94;;;8.48;96.87
19128;BME280;9696;53.686;10.094;2022-11-15T10:42:34;100861.91;;;8.56;95.59
19128;BME280;9696;53.686;10.094;2022-11-15T10:45:23;100857.03;;;8.63;95.63
19128;BME280;9696;53.686;10.094;2022-11-15T10:47:53;100845.88;;;8.72;96.61
19128;BME280;9696;53.686;10.094;2022-11-15T10:50:30;100849.19;;;8.74;96.02
19128;BME280;9696;53.686;10.094;2022-11-15T10:53:02;100846.09;;;8.80;96.21
19128;BME280;9696;53.686;10.094;2022-11-15T10:55:32;100860.25;;;8.77;95.45
19128;BME280;9696;53.686;10.094;2022-11-15T10:58:05;100852.88;;;8.82;94.14
19128;BME280;9696;53.686;10.094;2022-11-15T11:00:36;100852.63;;;8.85;95.26
19128;BME280;9696;53.686;10.094;2022-11-15T11:03:25;100843.13;;;8.95;95.65
19128;BME280;9696;53.686;10.094;2022-11-15T11:06:09;100837.75;;;8.97;94.34
19128;BME280;9696;53.686;10.094;2022-11-15T11:08:40;100838.97;;;9.04;94.38
19128;BME280;9696;53.686;10.094;2022-11-15T11:11:21;100843.97;;;9.07;94.89
19128;BME280;9696;53.686;10.094;2022-11-15T11:13:50;100843.47;;;9.13;95.58
19128;BME280;9696;53.686;10.094;2022-11-15T11:16:42;100843.94;;;9.18;95.16
19128;BME280;9696;53.686;10.094;2022-11-15T11:19:28;100830.38;;;9.24;95.21
19128;BME280;9696;53.686;10.094;2022-11-15T11:22:09;100820.25;;;9.31;94.99
19128;BME280;9696;53.686;10.094;2022-11-15T11:24:47;100816.56;;;9.33;94.62
19128;BME280;9696;53.686;10.094;2022-11-15T11:27:31;100820.00;;;9.34;95.18
19128;BME280;9696;53.686;10.094;2022-11-15T11:30:08;100821.78;;;9.33;95.07
19128;BME280;9696;53.686;10.094;2022-11-15T11:33:01;100816.28;;;9.36;95.22
19128;BME280;9696;53.686;10.094;2022-11-15T11:35:42;100823.09;;;9.39;95.51
19128;BME280;9696;53.686;10.094;2022-11-15T11:38:23;100825.72;;;9.39;94.95
19128;BME280;9696;53.686;10.094;2022-11-15T11:41:01;100816.50;;;9.44;94.30
19128;BME280;9696;53.686;10.094;2022-11-15T11:43:36;100807.94;;;9.54;95.20
19128;BME280;9696;53.686;10.094;2022-11-15T11:46:19;100806.41;;;9.51;94.72
19128;BME280;9696;53.686;10.094;2022-11-15T11:48:58;100800.78;;;9.56;94.22
19128;BME280;9696;53.686;10.094;2022-11-15T11:51:36;100800.91;;;9.54;93.50
19128;BME280;9696;53.686;10.094;2022-11-15T11:54:13;100797.66;;;9.62;93.17
19128;BME280;9696;53.686;10.094;2022-11-15T11:56:45;100794.88;;;9.74;93.77
19128;BME280;9696;53.686;10.094;2022-11-15T11:59:20;100788.09;;;9.72;93.77
19128;BME280;9696;53.686;10.094;2022-11-15T12:01:52;100789.31;;;9.68;92.82
19128;BME280;9696;53.686;10.094;2022-11-15T12:04:26;100785.97;;;9.66;93.43
19128;BME280;9696;53.686;10.094;2022-11-15T12:07:00;100782.34;;;9.78;93.85
19128;BME280;9696;53.686;10.094;2022-11-15T12:09:33;100795.63;;;9.65;92.33
19128;BME280;9696;53.686;10.094;2022-11-15T12:12:10;100791.53;;;9.72;93.47
19128;BME280;9696;53.686;10.094;2022-11-15T12:14:47;100787.28;;;9.71;93.06
19128;BME280;9696;53.686;10.094;2022-11-15T12:17:21;100787.03;;;9.74;92.55
19128;BME280;9696;53.686;10.094;2022-11-15T12:19:52;100784.78;;;9.70;93.35
19128;BME280;9696;53.686;10.094;2022-11-15T12:22:28;100777.75;;;9.70;92.91
19128;BME280;9696;53.686;10.094;2022-11-15T12:25:07;100776.75;;;9.82;92.85
19128;BME280;9696;53.686;10.094;2022-11-15T12:27:41;100770.78;;;9.80;93.87
19128;BME280;9696;53.686;10.094;2022-11-15T12:30:14;100771.56;;;9.92;92.95
19128;BME280;9696;53.686;10.094;2022-11-15T12:32:51;100768.56;;;9.97;92.46
19128;BME280;9696;53.686;10.094;2022-11-15T12:35:27;100764.88;;;9.99;92.75
19128;BME280;9696;53.686;10.094;2022-11-15T12:37:56;100763.88;;;10.00;92.69
19128;BME280;9696;53.686;10.094;2022-11-15T12:40:31;100760.06;;;10.04;93.15
19128;BME280;9696;53.686;10.094;2022-11-15T12:46:05;100751.13;;;10.07;91.93
19128;BME280;9696;53.686;10.094;2022-11-15T12:48:56;100747.03;;;10.14;92.72
19128;BME280;9696;53.686;10.094;2022-11-15T12:54:52;100748.56;;;10.16;92.59
19128;BME280;9696;53.686;10.094;2022-11-15T12:57:39;100753.69;;;10.18;91.34
19128;BME280;9696;53.686;10.094;2022-11-15T13:00:37;100750.53;;;10.24;91.03
19128;BME280;9696;53.686;10.094;2022-11-15T13:03:21;100756.31;;;10.38;91.12
19128;BME280;9696;53.686;10.094;2022-11-15T13:06:33;100740.31;;;10.42;91.28
19128;BME280;9696;53.686;10.094;2022-11-15T13:09:01;100737.69;;;10.51;90.84
19128;BME280;9696;53.686;10.094;2022-11-15T13:11:51;100741.31;;;10.50;91.05
19128;BME280;9696;53.686;10.094;2022-11-15T13:14:44;100735.91;;;10.52;91.05
19128;BME280;9696;53.686;10.094;2022-11-15T13:17:35;100735.91;;;10.52;90.55
19128;BME280;9696;53.686;10.094;2022-11-15T13:20:21;100739.16;;;10.34;91.38
19128;BME280;9696;53.686;10.094;2022-11-15T13:22:58;100739.59;;;10.39;91.34
19128;BME280;9696;53.686;10.094;2022-11-15T13:26:05;100727.47;;;10.48;91.33
19128;BME280;9696;53.686;10.094;2022-11-15T13:28:38;100719.34;;;10.51;90.33
19128;BME280;9696;53.686;10.094;2022-11-15T13:31:30;100721.41;;;10.48;90.13
19128;BME280;9696;53.686;10.094;2022-11-15T13:37:29;100711.78;;;10.58;89.39
19128;BME280;9696;53.686;10.094;2022-11-15T13:40:20;100710.28;;;10.65;88.95
19128;BME280;9696;53.686;10.094;2022-11-15T13:42:51;100706.72;;;10.66;89.94
19128;BME280;9696;53.686;10.094;2022-11-15T13:45:21;100704.31;;;10.63;88.99
19128;BME280;9696;53.686;10.094;2022-11-15T13:47:55;100705.44;;;10.60;89.33
19128;BME280;9696;53.686;10.094;2022-11-15T13:50:27;100706.00;;;10.64;90.05
19128;BME280;9696;53.686;10.094;2022-11-15T13:53:00;100699.41;;;10.69;88.57
19128;BME280;9696;53.686;10.094;2022-11-15T13:55:32;100703.53;;;10.72;89.23
19128;BME280;9696;53.686;10.094;2022-11-15T13:58:04;100697.34;;;10.82;88.68
19128;BME280;9696;53.686;10.094;2022-11-15T14:00:37;100687.16;;;10.89;88.43
19128;BME280;9696;53.686;10.094;2022-11-15T14:03:15;100695.03;;;10.89;88.28
19128;BME280;9696;53.686;10.094;2022-11-15T14:06:00;100685.22;;;11.01;88.31
19128;BME280;9696;53.686;10.094;2022-11-15T14:08:31;100691.16;;;11.03;88.04
19128;BME280;9696;53.686;10.094;2022-11-15T14:11:15;100678.19;;;11.01;87.66
19128;BME280;9696;53.686;10.094;2022-11-15T14:14:05;100676.78;;;10.87;87.67
19128;BME280;9696;53.686;10.094;2022-11-15T14:16:41;100674.56;;;10.83;89.05
19128;BME280;9696;53.686;10.094;2022-11-15T14:19:12;100676.78;;;10.78;89.30
19128;BME280;9696;53.686;10.094;2022-11-15T14:22:13;100682.25;;;10.65;89.34
19128;BME280;9696;53.686;10.094;2022-11-15T14:24:44;100674.91;;;10.59;89.91
19128;BME280;9696;53.686;10.094;2022-11-15T14:27:23;100673.41;;;10.57;90.02
19128;BME280;9696;53.686;10.094;2022-11-15T14:29:54;100669.00;;;10.57;89.62
19128;BME280;9696;53.686;10.094;2022-11-15T14:32:26;100676.16;;;10.55;90.22
19128;BME280;9696;53.686;10.094;2022-11-15T14:34:56;100664.53;;;10.48;91.13
19128;BME280;9696;53.686;10.094;2022-11-15T14:37:27;100664.47;;;10.69;90.49
19128;BME280;9696;53.686;10.094;2022-11-15T14:39:56;100662.97;;;10.85;89.24
19128;BME280;9696;53.686;10.094;2022-11-15T14:42:26;100664.56;;;10.58;89.26
19128;BME280;9696;53.686;10.094;2022-11-15T14:44:56;100664.59;;;10.67;89.48